sensor_id;sensor_type;location;lat;lon;timestamp;pressure;altitude;pressure_sealevel;temperature;humidity
73551;BME280;61816;53.582;10.096;2023-04-02T00:02:24;54539.06;;;-144.73;91.20
73551;BME280;61816;53.582;10.096;2023-04-02T00:07:59;54563.69;;;-144.73;90.44
73551;BME280;61816;53.582;10.096;2023-04-02T00:10:35;54559.59;;;-144.73;90.49
73551;BME280;61816;53.582;10.096;2023-04-02T00:15:40;54631.44;;;-144.73;89.57
73551;BME280;61816;53.582;10.096;2023-04-02T00:18:09;54559.59;;;-144.73;89.79
73551;BME280;61816;53.582;10.096;2023-04-02T00:20:40;54551.38;;;-144.73;89.96
73551;BME280;61816;53.582;10.096;2023-04-02T00:23:11;54580.13;;;-144.73;90.57
73551;BME280;61816;53.582;10.096;2023-04-02T00:25:38;54563.69;;;-144.73;90.85
73551;BME280;61816;53.582;10.096;2023-04-02T00:28:22;54567.81;;;-144.73;91.09
73551;BME280;61816;53.582;10.096;2023-04-02T00:30:53;54541.13;;;-144.73;90.78
73551;BME280;61816;53.582;10.096;2023-04-02T00:33:23;54567.81;;;-144.73;90.83
73551;BME280;61816;53.582;10.096;2023-04-02T00:35:51;54555.47;;;-144.73;91.02
73551;BME280;61816;53.582;10.096;2023-04-02T00:38:26;54573.97;;;-144.73;90.94
73551;BME280;61816;53.582;10.096;2023-04-02T00:40:54;54576.00;;;-144.73;90.59
73551;BME280;61816;53.582;10.096;2023-04-02T00:43:29;54539.06;;;-144.73;90.79
73551;BME280;61816;53.582;10.096;2023-04-02T00:46:01;54526.75;;;-144.73;90.83
73551;BME280;61816;53.582;10.096;2023-04-02T00:50:59;54578.06;;;-144.73;91.06
73551;BME280;61816;53.582;10.096;2023-04-02T00:53:27;54551.38;;;-144.73;90.96
73551;BME280;61816;53.582;10.096;2023-04-02T00:55:55;54559.59;;;-144.73;90.92
73551;BME280;61816;53.582;10.096;2023-04-02T00:58:26;54524.69;;;-144.73;90.97
73551;BME280;61816;53.582;10.096;2023-04-02T01:00:53;54571.91;;;-144.73;90.83
73551;BME280;61816;53.582;10.096;2023-04-02T01:06:15;54559.59;;;-144.73;90.62
73551;BME280;61816;53.582;10.096;2023-04-02T01:14:11;54571.91;;;-144.73;90.54
73551;BME280;61816;53.582;10.096;2023-04-02T01:16:57;54567.81;;;-144.73;90.25
73551;BME280;61816;53.582;10.096;2023-04-02T01:25:41;54547.28;;;-144.73;90.09
73551;BME280;61816;53.582;10.096;2023-04-02T01:28:15;54555.47;;;-144.73;90.17
73551;BME280;61816;53.582;10.096;2023-04-02T01:30:50;54522.63;;;-144.73;89.91
73551;BME280;61816;53.582;10.096;2023-04-02T01:33:20;54573.97;;;-144.73;89.44
73551;BME280;61816;53.582;10.096;2023-04-02T01:35:54;54576.00;;;-144.73;89.31
73551;BME280;61816;53.582;10.096;2023-04-02T01:38:29;54551.38;;;-144.73;89.92
73551;BME280;61816;53.582;10.096;2023-04-02T01:40:59;54514.44;;;-144.73;89.01
73551;BME280;61816;53.582;10.096;2023-04-02T01:43:45;54547.28;;;-144.73;88.75
73551;BME280;61816;53.582;10.096;2023-04-02T01:46:29;54592.44;;;-144.73;87.88
73551;BME280;61816;53.582;10.096;2023-04-02T01:48:56;54582.16;;;-144.73;87.50
73551;BME280;61816;53.582;10.096;2023-04-02T01:51:26;54539.06;;;-144.73;86.76
73551;BME280;61816;53.582;10.096;2023-04-02T01:53:52;54580.13;;;-144.73;86.59
73551;BME280;61816;53.582;10.096;2023-04-02T01:56:18;54551.38;;;-144.73;86.38
73551;BME280;61816;53.582;10.096;2023-04-02T01:58:44;54557.53;;;-144.73;86.28
73551;BME280;61816;53.582;10.096;2023-04-02T02:01:18;54555.47;;;-144.73;86.25
73551;BME280;61816;53.582;10.096;2023-04-02T02:03:46;54539.06;;;-144.73;86.15
73551;BME280;61816;53.582;10.096;2023-04-02T02:06:14;54559.59;;;-144.73;86.13
73551;BME280;61816;53.582;10.096;2023-04-02T02:08:46;54547.28;;;-144.73;86.28
73551;BME280;61816;53.582;10.096;2023-04-02T02:11:20;54516.47;;;-144.73;86.50
73551;BME280;61816;53.582;10.096;2023-04-02T02:13:57;54543.16;;;-144.73;86.15
73551;BME280;61816;53.582;10.096;2023-04-02T02:16:23;54592.44;;;-144.73;86.25
73551;BME280;61816;53.582;10.096;2023-04-02T02:18:53;54592.44;;;-144.73;86.52
73551;BME280;61816;53.582;10.096;2023-04-02T02:21:28;54567.81;;;-144.73;87.23
73551;BME280;61816;53.582;10.096;2023-04-02T02:23:58;54539.06;;;-144.73;87.16
73551;BME280;61816;53.582;10.096;2023-04-02T02:26:25;54551.38;;;-144.73;86.89
73551;BME280;61816;53.582;10.096;2023-04-02T02:28:54;54580.13;;;-144.73;86.26
73551;BME280;61816;53.582;10.096;2023-04-02T02:31:27;54559.59;;;-144.73;87.27
73551;BME280;61816;53.582;10.096;2023-04-02T02:33:59;54541.13;;;-144.73;88.03
73551;BME280;61816;53.582;10.096;2023-04-02T02:36:31;54569.84;;;-144.73;87.87
73551;BME280;61816;53.582;10.096;2023-04-02T02:39:09;54592.44;;;-144.73;87.30
73551;BME280;61816;53.582;10.096;2023-04-02T02:41:41;54563.69;;;-144.73;87.74
73551;BME280;61816;53.582;10.096;2023-04-02T02:46:45;54567.81;;;-144.73;87.97
73551;BME280;61816;53.582;10.096;2023-04-02T02:49:17;54543.16;;;-144.73;88.28
73551;BME280;61816;53.582;10.096;2023-04-02T02:52:34;54514.44;;;-144.73;88.73
73551;BME280;61816;53.582;10.096;2023-04-02T02:54:33;54563.69;;;-144.73;88.86
73551;BME280;61816;53.582;10.096;2023-04-02T02:57:03;54543.16;;;-144.73;89.07
73551;BME280;61816;53.582;10.096;2023-04-02T02:59:30;54559.59;;;-144.73;88.86
73551;BME280;61816;53.582;10.096;2023-04-02T03:01:57;54588.31;;;-144.73;89.18
73551;BME280;61816;53.582;10.096;2023-04-02T03:04:23;54541.13;;;-144.73;88.88
73551;BME280;61816;53.582;10.096;2023-04-02T03:06:50;54539.06;;;-144.73;89.24
73551;BME280;61816;53.582;10.096;2023-04-02T03:12:20;54551.38;;;-144.73;89.95
73551;BME280;61816;53.582;10.096;2023-04-02T03:15:01;54567.81;;;-144.73;89.59
73551;BME280;61816;53.582;10.096;2023-04-02T03:17:39;54551.38;;;-144.73;90.41
73551;BME280;61816;53.582;10.096;2023-04-02T03:22:54;54559.59;;;-144.73;90.11
73551;BME280;61816;53.582;10.096;2023-04-02T03:25:32;54567.81;;;-144.73;90.01
73551;BME280;61816;53.582;10.096;2023-04-02T03:28:04;54530.84;;;-144.73;90.93
73551;BME280;61816;53.582;10.096;2023-04-02T03:30:41;54530.84;;;-144.73;91.43
73551;BME280;61816;53.582;10.096;2023-04-02T03:33:32;54588.31;;;-144.73;90.83
73551;BME280;61816;53.582;10.096;2023-04-02T03:36:16;54559.59;;;-144.73;91.15
73551;BME280;61816;53.582;10.096;2023-04-02T03:38:47;54559.59;;;-144.73;90.97
73551;BME280;61816;53.582;10.096;2023-04-02T03:41:20;54559.59;;;-144.73;90.43
73551;BME280;61816;53.582;10.096;2023-04-02T03:43:52;54522.63;;;-144.73;90.75
73551;BME280;61816;53.582;10.096;2023-04-02T03:46:26;54545.22;;;-144.73;90.67
73551;BME280;61816;53.582;10.096;2023-04-02T03:48:58;54543.16;;;-144.73;91.34
73551;BME280;61816;53.582;10.096;2023-04-02T03:51:29;54559.59;;;-144.73;90.92
73551;BME280;61816;53.582;10.096;2023-04-02T03:53:57;54588.31;;;-144.73;91.22
73551;BME280;61816;53.582;10.096;2023-04-02T03:56:28;54580.13;;;-144.73;91.15
73551;BME280;61816;53.582;10.096;2023-04-02T03:59:05;54555.47;;;-144.73;91.25
73551;BME280;61816;53.582;10.096;2023-04-02T04:01:42;54563.69;;;-144.73;91.80
73551;BME280;61816;53.582;10.096;2023-04-02T04:04:17;54569.84;;;-144.73;91.93
73551;BME280;61816;53.582;10.096;2023-04-02T04:06:45;54516.47;;;-144.73;91.97
73551;BME280;61816;53.582;10.096;2023-04-02T04:09:24;54522.63;;;-144.73;92.31
73551;BME280;61816;53.582;10.096;2023-04-02T04:11:55;54567.81;;;-144.73;92.83
73551;BME280;61816;53.582;10.096;2023-04-02T04:14:32;54551.38;;;-144.73;91.94
73551;BME280;61816;53.582;10.096;2023-04-02T04:19:50;54530.84;;;-144.73;91.19
73551;BME280;61816;53.582;10.096;2023-04-02T04:22:23;54559.59;;;-144.73;91.14
73551;BME280;61816;53.582;10.096;2023-04-02T04:25:03;54567.81;;;-144.73;90.19
73551;BME280;61816;53.582;10.096;2023-04-02T04:33:22;54539.06;;;-144.73;91.36
73551;BME280;61816;53.582;10.096;2023-04-02T04:35:55;54559.59;;;-144.73;90.71
73551;BME280;61816;53.582;10.096;2023-04-02T04:38:31;54526.75;;;-144.73;90.80
73551;BME280;61816;53.582;10.096;2023-04-02T04:41:02;54539.06;;;-144.73;90.50
73551;BME280;61816;53.582;10.096;2023-04-02T04:44:34;54576.00;;;-144.73;90.63
73551;BME280;61816;53.582;10.096;2023-04-02T04:46:37;54553.44;;;-144.73;89.90
73551;BME280;61816;53.582;10.096;2023-04-02T04:52:13;54588.31;;;-144.73;89.65
73551;BME280;61816;53.582;10.096;2023-04-02T04:54:41;54555.47;;;-144.73;89.61
73551;BME280;61816;53.582;10.096;2023-04-02T04:57:19;54547.28;;;-144.73;89.46
73551;BME280;61816;53.582;10.096;2023-04-02T04:59:53;54571.91;;;-144.73;88.49
73551;BME280;61816;53.582;10.096;2023-04-02T05:02:33;54567.81;;;-144.73;88.43
73551;BME280;61816;53.582;10.096;2023-04-02T05:05:02;54543.16;;;-144.73;88.34
73551;BME280;61816;53.582;10.096;2023-04-02T05:07:35;54588.31;;;-144.73;88.28
73551;BME280;61816;53.582;10.096;2023-04-02T05:10:20;54559.59;;;-144.73;87.92
73551;BME280;61816;53.582;10.096;2023-04-02T05:12:57;54559.59;;;-144.73;87.61
73551;BME280;61816;53.582;10.096;2023-04-02T05:15:29;54553.44;;;-144.73;87.62
73551;BME280;61816;53.582;10.096;2023-04-02T05:18:07;54539.06;;;-144.73;87.81
73551;BME280;61816;53.582;10.096;2023-04-02T05:20:54;54547.28;;;-144.73;87.30
73551;BME280;61816;53.582;10.096;2023-04-02T05:23:25;54551.38;;;-144.73;87.17
73551;BME280;61816;53.582;10.096;2023-04-02T05:29:00;54530.84;;;-144.73;86.79
73551;BME280;61816;53.582;10.096;2023-04-02T05:31:37;54539.06;;;-144.73;86.02
73551;BME280;61816;53.582;10.096;2023-04-02T05:34:04;54586.28;;;-144.73;85.85
73551;BME280;61816;53.582;10.096;2023-04-02T05:36:32;54586.28;;;-144.73;85.44
73551;BME280;61816;53.582;10.096;2023-04-02T05:38:59;54559.59;;;-144.73;85.81
73551;BME280;61816;53.582;10.096;2023-04-02T05:41:40;54526.75;;;-144.73;85.19
73551;BME280;61816;53.582;10.096;2023-04-02T05:44:32;54588.31;;;-144.73;85.08
73551;BME280;61816;53.582;10.096;2023-04-02T05:47:15;54567.81;;;-144.73;84.88
73551;BME280;61816;53.582;10.096;2023-04-02T05:49:49;54563.69;;;-144.73;84.70
73551;BME280;61816;53.582;10.096;2023-04-02T05:52:22;54608.84;;;-144.73;84.08
73551;BME280;61816;53.582;10.096;2023-04-02T05:57:34;54547.28;;;-144.73;83.70
73551;BME280;61816;53.582;10.096;2023-04-02T06:00:08;54580.13;;;-144.73;83.75
73551;BME280;61816;53.582;10.096;2023-04-02T06:02:59;54563.69;;;-144.73;83.47
73551;BME280;61816;53.582;10.096;2023-04-02T06:05:39;54567.81;;;-144.73;83.03
73551;BME280;61816;53.582;10.096;2023-04-02T06:08:16;54543.16;;;-144.73;83.36
73551;BME280;61816;53.582;10.096;2023-04-02T06:10:51;54526.75;;;-144.73;82.54
73551;BME280;61816;53.582;10.096;2023-04-02T06:13:19;54559.59;;;-144.73;82.78
73551;BME280;61816;53.582;10.096;2023-04-02T06:15:45;54592.44;;;-144.73;82.28
73551;BME280;61816;53.582;10.096;2023-04-02T06:18:27;54563.69;;;-144.73;82.59
73551;BME280;61816;53.582;10.096;2023-04-02T06:20:54;54530.84;;;-144.73;82.06
73551;BME280;61816;53.582;10.096;2023-04-02T06:23:40;54588.31;;;-144.73;82.14
73551;BME280;61816;53.582;10.096;2023-04-02T06:26:20;54567.81;;;-144.73;82.25
73551;BME280;61816;53.582;10.096;2023-04-02T06:28:54;54567.81;;;-144.73;82.76
73551;BME280;61816;53.582;10.096;2023-04-02T06:31:58;54559.59;;;-144.73;82.69
73551;BME280;61816;53.582;10.096;2023-04-02T06:34:28;54559.59;;;-144.73;82.76
73551;BME280;61816;53.582;10.096;2023-04-02T06:39:36;54559.59;;;-144.73;82.04
73551;BME280;61816;53.582;10.096;2023-04-02T06:42:05;54510.31;;;-144.73;82.03
73551;BME280;61816;53.582;10.096;2023-04-02T06:44:35;54524.69;;;-144.73;81.62
73551;BME280;61816;53.582;10.096;2023-04-02T06:47:06;54571.91;;;-144.73;81.79
73551;BME280;61816;53.582;10.096;2023-04-02T06:49:45;54576.00;;;-144.73;80.44
73551;BME280;61816;53.582;10.096;2023-04-02T06:52:22;54522.63;;;-144.73;81.16
73551;BME280;61816;53.582;10.096;2023-04-02T06:54:50;54571.91;;;-144.73;80.27
73551;BME280;61816;53.582;10.096;2023-04-02T06:57:16;54571.91;;;-144.73;79.94
73551;BME280;61816;53.582;10.096;2023-04-02T06:59:41;54551.38;;;-144.73;80.24
73551;BME280;61816;53.582;10.096;2023-04-02T07:02:33;54559.59;;;-144.73;79.96
73551;BME280;61816;53.582;10.096;2023-04-02T07:05:05;54571.91;;;-144.73;80.67
73551;BME280;61816;53.582;10.096;2023-04-02T07:07:30;54553.44;;;-144.73;79.96
73551;BME280;61816;53.582;10.096;2023-04-02T07:09:56;54600.63;;;-144.73;79.63
73551;BME280;61816;53.582;10.096;2023-04-02T07:12:23;54551.38;;;-144.73;79.70
73551;BME280;61816;53.582;10.096;2023-04-02T07:14:49;54571.91;;;-144.73;79.92
73551;BME280;61816;53.582;10.096;2023-04-02T07:17:16;54576.00;;;-144.73;79.10
73551;BME280;61816;53.582;10.096;2023-04-02T07:19:42;54563.69;;;-144.73;78.93
73551;BME280;61816;53.582;10.096;2023-04-02T07:22:10;54551.38;;;-144.73;78.35
73551;BME280;61816;53.582;10.096;2023-04-02T07:24:36;54530.84;;;-144.73;77.98
73551;BME280;61816;53.582;10.096;2023-04-02T07:27:01;54551.38;;;-144.73;77.59
73551;BME280;61816;53.582;10.096;2023-04-02T07:29:27;54559.59;;;-144.73;77.46
73551;BME280;61816;53.582;10.096;2023-04-02T07:31:52;54551.38;;;-144.73;77.83
73551;BME280;61816;53.582;10.096;2023-04-02T07:34:18;54543.16;;;-144.73;76.93
73551;BME280;61816;53.582;10.096;2023-04-02T07:36:43;54584.22;;;-144.73;76.67
73551;BME280;61816;53.582;10.096;2023-04-02T07:39:09;54539.06;;;-144.73;76.39
73551;BME280;61816;53.582;10.096;2023-04-02T07:41:50;54559.59;;;-144.73;75.49
73551;BME280;61816;53.582;10.096;2023-04-02T07:44:16;54588.31;;;-144.73;76.03
73551;BME280;61816;53.582;10.096;2023-04-02T07:46:41;54559.59;;;-144.73;75.77
73551;BME280;61816;53.582;10.096;2023-04-02T07:49:07;54543.16;;;-144.73;75.17
73551;BME280;61816;53.582;10.096;2023-04-02T07:51:32;54580.13;;;-144.73;74.75
73551;BME280;61816;53.582;10.096;2023-04-02T07:53:58;54557.53;;;-144.73;74.49
73551;BME280;61816;53.582;10.096;2023-04-02T07:56:26;54539.06;;;-144.73;74.74
73551;BME280;61816;53.582;10.096;2023-04-02T07:58:53;54539.06;;;-144.73;73.94
73551;BME280;61816;53.582;10.096;2023-04-02T08:01:20;54539.06;;;-144.73;73.49
73551;BME280;61816;53.582;10.096;2023-04-02T08:03:50;54514.44;;;-144.73;74.09
73551;BME280;61816;53.582;10.096;2023-04-02T08:06:16;54584.22;;;-144.73;74.03
73551;BME280;61816;53.582;10.096;2023-04-02T08:08:44;54571.91;;;-144.73;73.79
73551;BME280;61816;53.582;10.096;2023-04-02T08:11:10;54545.22;;;-144.73;73.75
73551;BME280;61816;53.582;10.096;2023-04-02T08:13:35;54543.16;;;-144.73;72.80
73551;BME280;61816;53.582;10.096;2023-04-02T08:16:03;54522.63;;;-144.73;72.82
73551;BME280;61816;53.582;10.096;2023-04-02T08:18:29;54563.69;;;-144.73;72.20
73551;BME280;61816;53.582;10.096;2023-04-02T08:20:55;54502.13;;;-144.73;71.51
73551;BME280;61816;53.582;10.096;2023-04-02T08:23:22;54528.81;;;-144.73;72.39
73551;BME280;61816;53.582;10.096;2023-04-02T08:25:48;54485.69;;;-144.73;71.10
73551;BME280;61816;53.582;10.096;2023-04-02T08:28:14;54555.47;;;-144.73;71.00
73551;BME280;61816;53.582;10.096;2023-04-02T08:30:39;54541.13;;;-144.73;69.90
73551;BME280;61816;53.582;10.096;2023-04-02T08:33:05;54539.06;;;-144.73;70.14
73551;BME280;61816;53.582;10.096;2023-04-02T08:35:31;54512.38;;;-144.73;70.34
73551;BME280;61816;53.582;10.096;2023-04-02T08:37:57;54545.22;;;-144.73;69.67
73551;BME280;61816;53.582;10.096;2023-04-02T08:48:21;54557.53;;;-144.73;67.03
73551;BME280;61816;53.582;10.096;2023-04-02T08:50:48;54510.31;;;-144.73;68.05
73551;BME280;61816;53.582;10.096;2023-04-02T08:53:24;54526.75;;;-144.73;68.21
73551;BME280;61816;53.582;10.096;2023-04-02T08:56:09;54555.47;;;-144.73;67.31
73551;BME280;61816;53.582;10.096;2023-04-02T08:58:54;54549.31;;;-144.73;67.54
73551;BME280;61816;53.582;10.096;2023-04-02T09:01:39;54567.81;;;-144.73;67.83
73551;BME280;61816;53.582;10.096;2023-04-02T09:04:14;54524.69;;;-144.73;65.94
73551;BME280;61816;53.582;10.096;2023-04-02T09:06:41;54543.16;;;-144.73;64.57
73551;BME280;61816;53.582;10.096;2023-04-02T09:09:08;54604.75;;;-144.73;65.04
73551;BME280;61816;53.582;10.096;2023-04-02T09:11:47;54524.69;;;-144.73;64.38
73551;BME280;61816;53.582;10.096;2023-04-02T09:14:31;54504.16;;;-144.73;64.33
73551;BME280;61816;53.582;10.096;2023-04-02T09:17:02;54506.22;;;-144.73;64.17
73551;BME280;61816;53.582;10.096;2023-04-02T09:19:35;54518.53;;;-144.73;63.63
73551;BME280;61816;53.582;10.096;2023-04-02T09:22:19;54539.06;;;-144.73;63.39
73551;BME280;61816;53.582;10.096;2023-04-02T09:24:53;54539.06;;;-144.73;63.24
73551;BME280;61816;53.582;10.096;2023-04-02T09:27:22;54522.63;;;-144.73;62.61
73551;BME280;61816;53.582;10.096;2023-04-02T09:29:59;54498.00;;;-144.73;60.95
73551;BME280;61816;53.582;10.096;2023-04-02T09:32:53;54543.16;;;-144.73;59.79
73551;BME280;61816;53.582;10.096;2023-04-02T09:37:47;54508.28;;;-144.73;57.61
73551;BME280;61816;53.582;10.096;2023-04-02T09:43:36;54493.91;;;-144.73;57.02
73551;BME280;61816;53.582;10.096;2023-04-02T09:46:16;54539.06;;;-144.73;56.28
73551;BME280;61816;53.582;10.096;2023-04-02T09:48:52;54539.06;;;-144.73;56.13
73551;BME280;61816;53.582;10.096;2023-04-02T09:51:21;54489.81;;;-144.73;56.09
73551;BME280;61816;53.582;10.096;2023-04-02T09:53:50;54516.47;;;-144.73;57.10
73551;BME280;61816;53.582;10.096;2023-04-02T09:56:18;54549.31;;;-144.73;58.00
73551;BME280;61816;53.582;10.096;2023-04-02T09:58:44;54518.53;;;-144.73;58.67
73551;BME280;61816;53.582;10.096;2023-04-02T10:01:25;54510.31;;;-144.73;58.31
73551;BME280;61816;53.582;10.096;2023-04-02T10:03:52;54506.22;;;-144.73;57.92
73551;BME280;61816;53.582;10.096;2023-04-02T10:06:17;54530.84;;;-144.73;57.10
73551;BME280;61816;53.582;10.096;2023-04-02T10:08:44;54461.06;;;-144.73;54.84
73551;BME280;61816;53.582;10.096;2023-04-02T10:11:29;54522.63;;;-144.73;55.36
73551;BME280;61816;53.582;10.096;2023-04-02T10:14:04;54510.31;;;-144.73;53.86
73551;BME280;61816;53.582;10.096;2023-04-02T10:16:37;54510.31;;;-144.73;54.39
73551;BME280;61816;53.582;10.096;2023-04-02T10:19:17;54506.22;;;-144.73;55.74
73551;BME280;61816;53.582;10.096;2023-04-02T10:21:47;54456.97;;;-144.73;55.05
73551;BME280;61816;53.582;10.096;2023-04-02T10:24:16;54489.81;;;-144.73;54.71
73551;BME280;61816;53.582;10.096;2023-04-02T10:37:52;54502.13;;;-144.73;55.58
73551;BME280;61816;53.582;10.096;2023-04-02T10:41:10;54510.31;;;-144.73;56.29
73551;BME280;61816;53.582;10.096;2023-04-02T10:43:37;54493.91;;;-144.73;55.65
73551;BME280;61816;53.582;10.096;2023-04-02T10:46:18;54518.53;;;-144.73;55.22
73551;BME280;61816;53.582;10.096;2023-04-02T10:49:03;54514.44;;;-144.73;56.07
73551;BME280;61816;53.582;10.096;2023-04-02T10:51:42;54518.53;;;-144.73;55.46
73551;BME280;61816;53.582;10.096;2023-04-02T10:54:43;54477.47;;;-144.73;53.60
73551;BME280;61816;53.582;10.096;2023-04-02T10:57:21;54459.00;;;-144.73;52.04
73551;BME280;61816;53.582;10.096;2023-04-02T11:00:01;54518.53;;;-144.73;53.08
73551;BME280;61816;53.582;10.096;2023-04-02T11:03:03;54485.69;;;-144.73;52.63
73551;BME280;61816;53.582;10.096;2023-04-02T11:05:40;54506.22;;;-144.73;52.73
73551;BME280;61816;53.582;10.096;2023-04-02T11:08:25;54506.22;;;-144.73;51.43
73551;BME280;61816;53.582;10.096;2023-04-02T11:13:37;54520.59;;;-144.73;52.44
73551;BME280;61816;53.582;10.096;2023-04-02T11:16:06;54539.06;;;-144.73;52.39
73551;BME280;61816;53.582;10.096;2023-04-02T11:18:35;54539.06;;;-144.73;51.77
73551;BME280;61816;53.582;10.096;2023-04-02T11:23:56;54489.81;;;-144.73;48.52
73551;BME280;61816;53.582;10.096;2023-04-02T11:29:13;54483.66;;;-144.73;48.68
73551;BME280;61816;53.582;10.096;2023-04-02T11:31:41;54473.38;;;-144.73;49.86
73551;BME280;61816;53.582;10.096;2023-04-02T11:37:09;54473.38;;;-144.73;49.04
73551;BME280;61816;53.582;10.096;2023-04-02T11:39:57;54510.31;;;-144.73;49.44
73551;BME280;61816;53.582;10.096;2023-04-02T11:42:27;54473.38;;;-144.73;48.70
73551;BME280;61816;53.582;10.096;2023-04-02T11:44:54;54489.81;;;-144.73;49.52
73551;BME280;61816;53.582;10.096;2023-04-02T11:47:21;54530.84;;;-144.73;49.60
73551;BME280;61816;53.582;10.096;2023-04-02T11:52:32;54477.47;;;-144.73;48.46
73551;BME280;61816;53.582;10.096;2023-04-02T12:03:22;54473.38;;;-144.73;46.51
73551;BME280;61816;53.582;10.096;2023-04-02T12:06:00;54506.22;;;-144.73;46.71
73551;BME280;61816;53.582;10.096;2023-04-02T12:11:00;54485.69;;;-144.73;47.25
73551;BME280;61816;53.582;10.096;2023-04-02T12:16:11;54539.06;;;-144.73;47.33
73551;BME280;61816;53.582;10.096;2023-04-02T12:18:47;54485.69;;;-144.73;47.83
73551;BME280;61816;53.582;10.096;2023-04-02T12:21:20;54526.75;;;-144.73;48.05
73551;BME280;61816;53.582;10.096;2023-04-02T12:23:48;54522.63;;;-144.73;45.47
73551;BME280;61816;53.582;10.096;2023-04-02T12:26:35;54502.13;;;-144.73;44.21
73551;BME280;61816;53.582;10.096;2023-04-02T12:29:46;54477.47;;;-144.73;44.40
73551;BME280;61816;53.582;10.096;2023-04-02T12:32:18;54481.59;;;-144.73;45.02
73551;BME280;61816;53.582;10.096;2023-04-02T12:34:44;54502.13;;;-144.73;44.32
73551;BME280;61816;53.582;10.096;2023-04-02T12:37:19;54502.13;;;-144.73;44.52
73551;BME280;61816;53.582;10.096;2023-04-02T12:39:51;54461.06;;;-144.73;43.11
73551;BME280;61816;53.582;10.096;2023-04-02T12:42:32;54489.81;;;-144.73;43.61
73551;BME280;61816;53.582;10.096;2023-04-02T12:44:58;54444.66;;;-144.73;43.82
73551;BME280;61816;53.582;10.096;2023-04-02T12:47:24;54539.06;;;-144.73;43.22
73551;BME280;61816;53.582;10.096;2023-04-02T12:49:51;54493.91;;;-144.73;43.03
73551;BME280;61816;53.582;10.096;2023-04-02T12:52:20;54518.53;;;-144.73;44.01
73551;BME280;61816;53.582;10.096;2023-04-02T12:55:02;54440.53;;;-144.73;44.31
73551;BME280;61816;53.582;10.096;2023-04-02T13:05:34;54510.31;;;-144.73;45.09
73551;BME280;61816;53.582;10.096;2023-04-02T13:08:02;54498.00;;;-144.73;45.99
73551;BME280;61816;53.582;10.096;2023-04-02T13:10:28;54479.53;;;-144.73;47.50
73551;BME280;61816;53.582;10.096;2023-04-02T13:12:59;54514.44;;;-144.73;47.17
73551;BME280;61816;53.582;10.096;2023-04-02T13:18:04;54475.44;;;-144.73;46.49
73551;BME280;61816;53.582;10.096;2023-04-02T13:23:30;54493.91;;;-144.73;44.27
73551;BME280;61816;53.582;10.096;2023-04-02T13:25:58;54498.00;;;-144.73;45.99
73551;BME280;61816;53.582;10.096;2023-04-02T13:28:24;54477.47;;;-144.73;46.62
73551;BME280;61816;53.582;10.096;2023-04-02T13:30:49;54604.75;;;-144.73;45.73
73551;BME280;61816;53.582;10.096;2023-04-02T13:33:15;54510.31;;;-144.73;46.61
73551;BME280;61816;53.582;10.096;2023-04-02T13:35:41;54512.38;;;-144.73;47.50
73551;BME280;61816;53.582;10.096;2023-04-02T13:38:07;54481.59;;;-144.73;48.97
73551;BME280;61816;53.582;10.096;2023-04-02T13:40:34;54506.22;;;-144.73;49.27
73551;BME280;61816;53.582;10.096;2023-04-02T13:43:02;54473.38;;;-144.73;47.41
73551;BME280;61816;53.582;10.096;2023-04-02T13:45:33;54506.22;;;-144.73;46.55
73551;BME280;61816;53.582;10.096;2023-04-02T13:48:00;54452.84;;;-144.73;46.67
73551;BME280;61816;53.582;10.096;2023-04-02T13:50:27;54485.69;;;-144.73;47.14
73551;BME280;61816;53.582;10.096;2023-04-02T13:52:56;54473.38;;;-144.73;47.87
73551;BME280;61816;53.582;10.096;2023-04-02T13:55:24;54454.91;;;-144.73;46.61
73551;BME280;61816;53.582;10.096;2023-04-02T13:57:52;54489.81;;;-144.73;46.54
73551;BME280;61816;53.582;10.096;2023-04-02T14:00:18;54473.38;;;-144.73;44.94
73551;BME280;61816;53.582;10.096;2023-04-02T14:02:49;54489.81;;;-144.73;45.57
73551;BME280;61816;53.582;10.096;2023-04-02T14:05:31;54485.69;;;-144.73;44.77
73551;BME280;61816;53.582;10.096;2023-04-02T14:11:21;54518.53;;;-144.73;45.09
73551;BME280;61816;53.582;10.096;2023-04-02T14:19:26;54481.59;;;-144.73;47.62
73551;BME280;61816;53.582;10.096;2023-04-02T14:22:07;54477.47;;;-144.73;46.64
73551;BME280;61816;53.582;10.096;2023-04-02T14:35:46;54456.97;;;-144.73;51.65
73551;BME280;61816;53.582;10.096;2023-04-02T14:41:01;54481.59;;;-144.73;48.91
73551;BME280;61816;53.582;10.096;2023-04-02T14:43:44;54461.06;;;-144.73;49.05
73551;BME280;61816;53.582;10.096;2023-04-02T14:46:10;54498.00;;;-144.73;49.94
73551;BME280;61816;53.582;10.096;2023-04-02T14:51:58;54428.22;;;-144.73;47.88
73551;BME280;61816;53.582;10.096;2023-04-02T14:54:38;54489.81;;;-144.73;47.67
73551;BME280;61816;53.582;10.096;2023-04-02T14:57:40;54424.13;;;-144.73;50.96
73551;BME280;61816;53.582;10.096;2023-04-02T15:03:29;54485.69;;;-144.73;53.14
73551;BME280;61816;53.582;10.096;2023-04-02T15:06:11;54551.38;;;-144.73;55.16
73551;BME280;61816;53.582;10.096;2023-04-02T15:08:49;54469.28;;;-144.73;55.74
73551;BME280;61816;53.582;10.096;2023-04-02T15:11:24;54493.91;;;-144.73;53.02
73551;BME280;61816;53.582;10.096;2023-04-02T15:14:01;54504.16;;;-144.73;51.80
73551;BME280;61816;53.582;10.096;2023-04-02T15:16:29;54498.00;;;-144.73;52.69
73551;BME280;61816;53.582;10.096;2023-04-02T15:19:01;54473.38;;;-144.73;51.34
73551;BME280;61816;53.582;10.096;2023-04-02T15:21:41;54479.53;;;-144.73;52.09
73551;BME280;61816;53.582;10.096;2023-04-02T15:24:29;54506.22;;;-144.73;52.78
73551;BME280;61816;53.582;10.096;2023-04-02T15:27:10;54518.53;;;-144.73;54.19